createdAt,value
2017-03-25T00:00:33.548Z,0
2017-03-25T00:01:35.367Z,0
2017-03-25T00:02:37.203Z,0
2017-03-25T00:03:39.008Z,0
2017-03-25T00:04:40.811Z,0
2017-03-25T00:05:42.876Z,0
2017-03-25T00:06:44.672Z,0
2017-03-25T00:07:46.473Z,0
2017-03-25T00:08:48.274Z,0
2017-03-25T00:09:50.085Z,0
2017-03-25T00:10:51.873Z,0
2017-03-25T00:11:53.693Z,0
2017-03-25T00:12:55.495Z,0
2017-03-25T00:13:57.589Z,0
2017-03-25T00:14:59.397Z,0
2017-03-25T00:16:01.388Z,0
2017-03-25T00:17:03.772Z,0
2017-03-25T00:18:05.767Z,0
2017-03-25T00:19:07.560Z,0
2017-03-25T00:20:09.711Z,0
2017-03-25T00:21:11.849Z,0
2017-03-25T00:22:13.645Z,0
2017-03-25T00:23:15.447Z,0
2017-03-25T00:24:17.251Z,0
2017-03-25T00:25:19.397Z,0
2017-03-25T00:26:21.208Z,0
2017-03-25T00:27:23.253Z,0
2017-03-25T00:28:25.051Z,0
2017-03-25T00:29:26.856Z,0
2017-03-25T00:30:28.654Z,0
2017-03-25T00:31:30.455Z,0
2017-03-25T00:32:32.712Z,0
2017-03-25T00:33:34.844Z,0
2017-03-25T00:34:36.649Z,0
2017-03-25T00:35:38.452Z,0
2017-03-25T00:36:40.259Z,0
2017-03-25T00:37:42.058Z,0
2017-03-25T00:38:43.854Z,0
2017-03-25T00:39:45.665Z,0
2017-03-25T00:40:47.457Z,0
2017-03-25T00:41:49.262Z,0
2017-03-25T00:42:51.062Z,0
2017-03-25T00:43:53.258Z,0
2017-03-25T00:44:55.048Z,0
2017-03-25T00:45:56.846Z,0
2017-03-25T00:46:58.640Z,0
2017-03-25T00:48:00.473Z,0
2017-03-25T00:49:02.277Z,0
2017-03-25T00:50:04.315Z,0
2017-03-25T00:51:06.383Z,0
2017-03-25T00:52:08.167Z,0
2017-03-25T00:53:10.141Z,0
2017-03-25T00:54:12.087Z,0
2017-03-25T00:55:13.890Z,0
2017-03-25T00:56:15.681Z,0
2017-03-25T00:57:17.485Z,0
2017-03-25T00:58:19.302Z,0
2017-03-25T00:59:21.099Z,0
2017-03-25T01:00:23.216Z,0
2017-03-25T01:01:25.012Z,0
2017-03-25T01:02:26.814Z,0
2017-03-25T01:03:28.622Z,0
2017-03-25T01:04:30.423Z,0
2017-03-25T01:05:32.227Z,0
2017-03-25T01:06:34.591Z,0
2017-03-25T01:07:36.573Z,0
2017-03-25T01:08:38.528Z,0
2017-03-25T01:09:40.576Z,0
2017-03-25T01:10:42.812Z,0
2017-03-25T01:11:44.609Z,0
2017-03-25T01:12:46.408Z,0
2017-03-25T01:13:48.199Z,0
2017-03-25T01:14:50.002Z,0
2017-03-25T01:15:51.825Z,0
2017-03-25T01:16:53.753Z,0
2017-03-25T01:17:55.545Z,0
2017-03-25T01:18:57.352Z,0
2017-03-25T01:19:59.617Z,0
2017-03-25T01:21:01.420Z,0
2017-03-25T01:22:03.819Z,0
2017-03-25T01:23:05.895Z,0
2017-03-25T01:24:07.698Z,0
2017-03-25T01:25:09.500Z,0
2017-03-25T01:26:11.306Z,0
2017-03-25T01:27:13.728Z,0
2017-03-25T01:28:15.529Z,0
2017-03-25T01:29:17.323Z,0
2017-03-25T01:30:19.129Z,0
2017-03-25T01:31:20.927Z,0
2017-03-25T01:32:23.153Z,0
2017-03-25T01:33:24.944Z,0
2017-03-25T01:34:26.746Z,0
2017-03-25T01:35:28.550Z,0
2017-03-25T01:36:30.359Z,0
2017-03-25T01:37:32.187Z,0
2017-03-25T01:38:34.273Z,0
2017-03-25T01:39:36.226Z,0
2017-03-25T01:40:38.042Z,0
2017-03-25T01:41:39.834Z,0
2017-03-25T01:42:41.972Z,0
2017-03-25T01:43:43.781Z,0
2017-03-25T01:44:45.583Z,0
2017-03-25T01:45:47.383Z,0
2017-03-25T01:46:49.184Z,0
2017-03-25T01:47:50.986Z,0
2017-03-25T01:48:53.194Z,0
2017-03-25T01:49:55.001Z,0
2017-03-25T01:50:56.792Z,0
2017-03-25T01:51:58.595Z,0
2017-03-25T01:53:00.402Z,0
2017-03-25T01:54:02.205Z,0
2017-03-25T01:55:04.211Z,0
2017-03-25T01:56:06.273Z,0
2017-03-25T01:57:08.074Z,0
2017-03-25T01:58:10.212Z,0
2017-03-25T01:59:12.270Z,0
2017-03-25T02:00:14.071Z,0
2017-03-25T02:01:15.870Z,0
2017-03-25T02:02:18.012Z,0
2017-03-25T02:03:19.846Z,0
2017-03-25T02:04:21.650Z,0
2017-03-25T02:05:24.093Z,0
2017-03-25T02:06:25.895Z,0
2017-03-25T02:07:28.027Z,0
2017-03-25T02:08:29.824Z,0
2017-03-25T02:09:31.621Z,0
2017-03-25T02:10:34.210Z,0
2017-03-25T02:11:36.016Z,0
2017-03-25T02:12:37.810Z,0
2017-03-25T02:13:39.613Z,0
2017-03-25T02:14:41.402Z,0
2017-03-25T02:15:43.439Z,0
2017-03-25T02:16:45.243Z,0
2017-03-25T02:17:47.387Z,0
2017-03-25T02:18:49.184Z,0
2017-03-25T02:19:51.037Z,0
2017-03-25T02:20:53.331Z,0
2017-03-25T02:21:55.713Z,0
2017-03-25T02:22:57.512Z,0
2017-03-25T02:23:59.469Z,0
2017-03-25T02:25:01.424Z,0
2017-03-25T02:26:03.231Z,0
2017-03-25T02:27:05.039Z,0
2017-03-25T02:28:06.828Z,0
2017-03-25T02:29:08.632Z,0
2017-03-25T02:30:10.430Z,0
2017-03-25T02:31:12.241Z,0
2017-03-25T02:32:14.381Z,0
2017-03-25T02:33:16.524Z,0
2017-03-25T02:34:18.319Z,0
2017-03-25T02:35:20.119Z,0
2017-03-25T02:36:21.909Z,0
2017-03-25T02:37:23.716Z,0
2017-03-25T02:38:25.524Z,0
2017-03-25T02:39:27.317Z,0
2017-03-25T02:40:29.286Z,0
2017-03-25T02:41:31.312Z,0
2017-03-25T02:42:33.116Z,0
2017-03-25T02:43:34.917Z,0
2017-03-25T02:44:36.718Z,0
2017-03-25T02:45:38.517Z,0
2017-03-25T02:46:40.318Z,0
2017-03-25T02:47:42.126Z,0
2017-03-25T02:48:44.262Z,0
2017-03-25T02:49:46.058Z,0
2017-03-25T02:50:48.201Z,0
2017-03-25T02:51:50.000Z,0
2017-03-25T02:52:52.146Z,0
2017-03-25T02:53:53.940Z,0
2017-03-25T02:54:56.240Z,0
2017-03-25T02:55:58.040Z,0
2017-03-25T02:57:00.017Z,0
2017-03-25T02:58:01.942Z,0
2017-03-25T02:59:04.178Z,0
2017-03-25T03:00:06.596Z,0
2017-03-25T03:01:08.400Z,0
2017-03-25T03:02:10.567Z,0
2017-03-25T03:03:12.705Z,0
2017-03-25T03:04:15.181Z,0
2017-03-25T03:05:16.978Z,0
2017-03-25T03:06:18.782Z,0
2017-03-25T03:07:20.581Z,0
2017-03-25T03:08:22.381Z,0
2017-03-25T03:09:24.201Z,0
2017-03-25T03:10:26.338Z,0
2017-03-25T03:11:28.187Z,0
2017-03-25T03:12:29.989Z,0
2017-03-25T03:13:32.157Z,0
2017-03-25T03:14:34.987Z,0
2017-03-25T03:15:36.799Z,0
2017-03-25T03:16:38.608Z,0
2017-03-25T03:17:40.404Z,0
2017-03-25T03:18:42.556Z,0
2017-03-25T03:19:44.365Z,0
2017-03-25T03:20:46.159Z,0
2017-03-25T03:21:47.962Z,0
2017-03-25T03:22:49.761Z,0
2017-03-25T03:23:51.566Z,0
2017-03-25T03:24:53.706Z,0
2017-03-25T03:25:55.512Z,0
2017-03-25T03:26:57.313Z,0
2017-03-25T03:27:59.112Z,0
2017-03-25T03:29:00.929Z,0
2017-03-25T03:30:02.727Z,0
2017-03-25T03:31:04.539Z,0
2017-03-25T03:32:06.681Z,0
2017-03-25T03:33:08.487Z,0
2017-03-25T03:34:10.286Z,0
2017-03-25T03:35:12.088Z,0
2017-03-25T03:36:13.882Z,0
2017-03-25T03:37:15.688Z,0
2017-03-25T03:38:17.492Z,0
2017-03-25T03:39:19.669Z,0
2017-03-25T03:40:22.158Z,0
2017-03-25T03:41:24.003Z,0
2017-03-25T03:42:25.802Z,0
2017-03-25T03:43:27.759Z,0
2017-03-25T03:44:29.827Z,0
2017-03-25T03:45:31.623Z,0
2017-03-25T03:46:33.432Z,0
2017-03-25T03:47:35.237Z,0
2017-03-25T03:48:37.083Z,0
2017-03-25T03:49:39.569Z,0
2017-03-25T03:50:41.719Z,0
2017-03-25T03:51:43.524Z,0
2017-03-25T03:52:45.705Z,0
2017-03-25T03:53:47.861Z,0
2017-03-25T03:54:49.992Z,0
2017-03-25T03:55:51.791Z,0
2017-03-25T03:56:53.596Z,0
2017-03-25T03:57:55.406Z,0
2017-03-25T03:58:57.202Z,0
2017-03-25T03:59:59.004Z,0
2017-03-25T04:01:00.819Z,0
2017-03-25T04:02:02.621Z,0
2017-03-25T04:03:04.422Z,0
2017-03-25T04:04:06.217Z,0
2017-03-25T04:05:08.016Z,0
2017-03-25T04:06:09.821Z,0
2017-03-25T04:07:11.612Z,0
2017-03-25T04:08:13.417Z,0
2017-03-25T04:09:15.226Z,0
2017-03-25T04:10:17.374Z,0
2017-03-25T04:11:19.172Z,0
2017-03-25T04:12:20.976Z,0
2017-03-25T04:13:22.774Z,0
2017-03-25T04:14:24.921Z,0
2017-03-25T04:15:26.721Z,0
2017-03-25T04:16:28.521Z,0
2017-03-25T04:17:30.653Z,0
2017-03-25T04:18:32.842Z,0
2017-03-25T04:19:34.987Z,0
2017-03-25T04:20:36.789Z,0
2017-03-25T04:21:38.589Z,0
2017-03-25T04:22:40.723Z,0
2017-03-25T04:23:42.872Z,0
2017-03-25T04:24:44.674Z,1
2017-03-25T04:25:46.470Z,1
2017-03-25T04:26:48.263Z,1
2017-03-25T04:27:50.058Z,1
2017-03-25T04:28:52.201Z,1
2017-03-25T04:29:53.999Z,1
2017-03-25T04:30:56.140Z,2
2017-03-25T04:31:58.272Z,2
2017-03-25T04:33:00.077Z,1
2017-03-25T04:34:01.878Z,1
2017-03-25T04:35:03.682Z,3
2017-03-25T04:36:05.825Z,3
2017-03-25T04:37:07.624Z,3
2017-03-25T04:38:09.425Z,3
2017-03-25T04:39:11.231Z,5
2017-03-25T04:40:13.021Z,4
2017-03-25T04:41:14.825Z,7
2017-03-25T04:42:16.629Z,7
2017-03-25T04:43:18.430Z,10
2017-03-25T04:44:20.572Z,13
2017-03-25T04:45:22.365Z,14
2017-03-25T04:46:24.174Z,17
2017-03-25T04:47:25.976Z,18
2017-03-25T04:48:27.775Z,20
2017-03-25T04:49:29.581Z,24
2017-03-25T04:50:31.377Z,25
2017-03-25T04:51:33.213Z,28
2017-03-25T04:52:35.013Z,33
2017-03-25T04:53:36.813Z,38
2017-03-25T04:54:38.619Z,49
2017-03-25T04:55:40.429Z,62
2017-03-25T04:56:42.563Z,74
2017-03-25T04:57:44.699Z,86
2017-03-25T04:58:46.835Z,97
2017-03-25T04:59:48.983Z,108
2017-03-25T05:00:51.129Z,119
2017-03-25T05:01:52.926Z,130
2017-03-25T05:02:54.723Z,141
2017-03-25T05:03:56.928Z,155
2017-03-25T05:04:59.427Z,167
2017-03-25T05:06:01.571Z,180
2017-03-25T05:07:03.378Z,192
2017-03-25T05:08:05.176Z,207
2017-03-25T05:09:06.973Z,222
2017-03-25T05:10:08.781Z,239
2017-03-25T05:11:10.573Z,257
2017-03-25T05:12:12.372Z,276
2017-03-25T05:13:14.498Z,297
2017-03-25T05:14:16.301Z,317
2017-03-25T05:15:18.434Z,340
2017-03-25T05:16:20.240Z,364
2017-03-25T05:17:22.378Z,389
2017-03-25T05:18:24.175Z,416
2017-03-25T05:19:25.974Z,442
2017-03-25T05:20:28.512Z,471
2017-03-25T05:21:30.302Z,502
2017-03-25T05:22:32.101Z,535
2017-03-25T05:23:33.905Z,570
2017-03-25T05:24:36.051Z,606
2017-03-25T05:25:38.184Z,645
2017-03-25T05:26:39.988Z,683
2017-03-25T05:27:41.787Z,724
2017-03-25T05:28:43.587Z,765
2017-03-25T05:29:46.072Z,809
2017-03-25T05:30:48.252Z,853
2017-03-25T05:31:50.068Z,898
2017-03-25T05:32:51.913Z,945
2017-03-25T05:33:54.063Z,992
2017-03-25T05:34:55.883Z,1036
2017-03-25T05:35:58.050Z,1082
2017-03-25T05:37:00.248Z,1126
2017-03-25T05:38:02.068Z,1171
2017-03-25T05:39:03.871Z,1216
2017-03-25T05:40:06.114Z,1264
2017-03-25T05:41:07.909Z,1314
2017-03-25T05:42:09.719Z,1367
2017-03-25T05:43:11.526Z,1423
2017-03-25T05:44:13.319Z,1481
2017-03-25T05:45:15.119Z,1543
2017-03-25T05:46:16.971Z,1604
2017-03-25T05:47:18.789Z,1660
2017-03-25T05:48:20.629Z,1707
2017-03-25T05:49:22.552Z,1745
2017-03-25T05:50:24.361Z,1783
2017-03-25T05:51:26.158Z,1815
2017-03-25T05:52:27.964Z,1838
2017-03-25T05:53:30.100Z,1856
2017-03-25T05:54:31.955Z,1877
2017-03-25T05:55:33.817Z,1903
2017-03-25T05:56:35.611Z,1942
2017-03-25T05:57:37.595Z,1982
2017-03-25T05:58:39.736Z,2029
2017-03-25T05:59:41.874Z,2077
2017-03-25T06:00:44.055Z,2121
2017-03-25T06:01:45.858Z,2171
2017-03-25T06:02:47.741Z,2205
2017-03-25T06:03:49.897Z,2224
2017-03-25T06:04:52.044Z,2254
2017-03-25T06:05:53.859Z,2292
2017-03-25T06:06:55.671Z,2329
2017-03-25T06:07:57.490Z,2366
2017-03-25T06:08:59.405Z,2393
2017-03-25T06:10:01.264Z,2463
2017-03-25T06:11:03.762Z,2520
2017-03-25T06:12:05.918Z,2551
2017-03-25T06:13:07.740Z,2624
2017-03-25T06:14:10.075Z,2679
2017-03-25T06:15:12.576Z,2751
2017-03-25T06:16:14.459Z,2815
2017-03-25T06:17:16.608Z,2839
2017-03-25T06:18:18.422Z,2870
2017-03-25T06:19:20.223Z,2951
2017-03-25T06:20:22.370Z,2997
2017-03-25T06:21:24.162Z,3094
2017-03-25T06:22:26.019Z,3156
2017-03-25T06:23:27.815Z,3228
2017-03-25T06:24:29.613Z,3283
2017-03-25T06:25:31.755Z,3387
2017-03-25T06:26:33.903Z,3490
2017-03-25T06:27:35.704Z,3576
2017-03-25T06:28:37.512Z,3679
2017-03-25T06:29:39.308Z,3758
2017-03-25T06:30:41.114Z,3797
2017-03-25T06:31:42.946Z,3828
2017-03-25T06:32:44.797Z,3875
2017-03-25T06:33:46.598Z,3914
2017-03-25T06:34:49.419Z,3986
2017-03-25T06:35:51.901Z,4057
2017-03-25T06:36:53.715Z,4129
2017-03-25T06:37:55.502Z,4200
2017-03-25T06:38:57.303Z,4255
2017-03-25T06:39:59.112Z,4343
2017-03-25T06:41:01.252Z,4439
2017-03-25T06:42:03.393Z,4598
2017-03-25T06:43:05.543Z,4739
2017-03-25T06:44:07.346Z,4956
2017-03-25T06:45:09.156Z,5114
2017-03-25T06:46:11.316Z,5248
2017-03-25T06:47:13.455Z,5365
2017-03-25T06:48:15.253Z,5484
2017-03-25T06:49:17.067Z,5571
2017-03-25T06:50:18.873Z,5657
2017-03-25T06:51:21.012Z,5752
2017-03-25T06:52:22.817Z,5831
2017-03-25T06:53:24.624Z,5877
2017-03-25T06:54:26.443Z,5923
2017-03-25T06:55:28.600Z,5969
2017-03-25T06:56:30.487Z,6008
2017-03-25T06:57:32.278Z,6047
2017-03-25T06:58:34.434Z,6135
2017-03-25T06:59:36.921Z,6221
2017-03-25T07:00:38.720Z,6355
2017-03-25T07:01:40.519Z,6522
2017-03-25T07:02:42.668Z,6680
2017-03-25T07:03:44.816Z,6845
2017-03-25T07:04:46.959Z,7060
2017-03-25T07:05:48.762Z,7232
2017-03-25T07:06:50.558Z,7381
2017-03-25T07:07:52.697Z,7563
2017-03-25T07:08:54.845Z,7712
2017-03-25T07:09:56.988Z,7862
2017-03-25T07:10:58.785Z,7987
2017-03-25T07:12:00.606Z,8121
2017-03-25T07:13:02.405Z,8206
2017-03-25T07:14:04.541Z,8309
2017-03-25T07:15:06.350Z,8410
2017-03-25T07:16:08.483Z,8503
2017-03-25T07:17:10.294Z,8573
2017-03-25T07:18:12.100Z,8645
2017-03-25T07:19:13.909Z,8676
2017-03-25T07:20:15.706Z,8755
2017-03-25T07:21:17.507Z,8873
2017-03-25T07:22:19.646Z,9016
2017-03-25T07:23:21.445Z,9118
2017-03-25T07:24:23.594Z,9214
2017-03-25T07:25:25.393Z,9316
2017-03-25T07:26:27.202Z,9419
2017-03-25T07:27:29.344Z,9489
2017-03-25T07:28:31.482Z,9504
2017-03-25T07:29:33.631Z,9462
2017-03-25T07:30:35.437Z,9422
2017-03-25T07:31:37.245Z,9317
2017-03-25T07:32:39.056Z,9224
2017-03-25T07:33:40.850Z,9112
2017-03-25T07:34:42.661Z,9063
2017-03-25T07:35:44.468Z,9031
2017-03-25T07:36:46.272Z,9022
2017-03-25T07:37:48.406Z,9006
2017-03-25T07:38:50.543Z,9015
2017-03-25T07:39:52.345Z,9061
2017-03-25T07:40:54.491Z,9132
2017-03-25T07:41:56.291Z,9197
2017-03-25T07:42:58.433Z,9185
2017-03-25T07:44:00.570Z,9218
2017-03-25T07:45:02.382Z,9219
2017-03-25T07:46:04.184Z,9285
2017-03-25T07:47:05.983Z,9390
2017-03-25T07:48:08.462Z,9555
2017-03-25T07:49:10.265Z,9887
2017-03-25T07:50:12.405Z,9966
2017-03-25T07:51:14.215Z,10188
2017-03-25T07:52:16.697Z,9933
2017-03-25T07:58:18.768Z,11032
2017-03-25T07:59:20.984Z,11045
2017-03-25T08:00:22.845Z,11179
2017-03-25T08:01:24.697Z,11024
2017-03-25T08:02:26.549Z,11048
2017-03-25T08:03:28.405Z,11213
2017-03-25T08:04:30.274Z,11553
2017-03-25T08:05:32.134Z,11895
2017-03-25T08:06:33.978Z,11980
2017-03-25T08:07:35.833Z,12127
2017-03-25T08:08:38.045Z,12585
2017-03-25T08:09:39.888Z,13129
2017-03-25T08:10:41.754Z,13529
2017-03-25T08:11:43.648Z,14067
2017-03-25T08:12:45.897Z,15306
2017-03-25T08:13:48.234Z,20036
2017-03-25T08:14:50.479Z,24127
2017-03-25T08:15:52.379Z,25516
2017-03-25T08:16:54.315Z,26896
2017-03-25T08:17:56.309Z,21163
2017-03-25T08:18:58.167Z,28230
2017-03-25T08:20:00.193Z,28146
2017-03-25T08:21:02.067Z,30369
2017-03-25T08:22:04.388Z,31054
2017-03-25T08:23:06.440Z,31250
2017-03-25T08:24:08.377Z,29329
2017-03-25T08:25:10.365Z,32044
2017-03-25T08:26:12.419Z,33100
2017-03-25T08:27:15.057Z,65536
2017-03-25T08:28:16.939Z,65536
2017-03-25T08:29:19.014Z,65536
2017-03-25T08:30:21.053Z,65536
2017-03-25T08:31:23.249Z,33582
2017-03-25T08:32:25.522Z,32952
2017-03-25T08:33:27.428Z,30600
2017-03-25T08:34:29.481Z,32927
2017-03-25T08:35:31.688Z,65536
2017-03-25T08:36:33.634Z,65536
2017-03-25T08:37:35.563Z,65536
2017-03-25T08:38:37.508Z,65536
2017-03-25T08:39:39.536Z,65536
2017-03-25T08:40:41.482Z,65536
2017-03-25T08:41:43.865Z,65536
2017-03-25T08:42:45.749Z,65536
2017-03-25T08:43:47.853Z,65536
2017-03-25T08:44:50.048Z,65536
2017-03-25T08:45:51.911Z,65536
2017-03-25T08:46:53.847Z,65536
2017-03-25T08:47:56.138Z,33915
2017-03-25T08:48:58.252Z,27703
2017-03-25T08:50:00.241Z,30370
2017-03-25T08:51:02.276Z,65536
2017-03-25T08:52:04.619Z,65536
2017-03-25T08:53:06.611Z,65536
2017-03-25T08:54:08.628Z,65536
2017-03-25T08:55:10.967Z,65536
2017-03-25T08:56:13.040Z,33992
2017-03-25T08:57:15.028Z,33266
2017-03-25T08:58:16.945Z,31187
2017-03-25T08:59:19.492Z,29630
2017-03-25T09:00:21.572Z,18053
2017-03-25T09:01:23.573Z,17497
2017-03-25T09:02:25.528Z,17778
2017-03-25T09:03:27.605Z,20029
2017-03-25T09:04:29.901Z,21860
2017-03-25T09:05:31.987Z,23995
2017-03-25T09:06:34.643Z,21022
2017-03-25T09:07:36.775Z,20004
2017-03-25T09:08:38.948Z,24032
2017-03-25T09:09:41.352Z,28826
2017-03-25T09:10:43.534Z,25029
2017-03-25T09:11:45.666Z,24716
2017-03-25T09:12:47.789Z,22070
2017-03-25T09:13:49.750Z,19278
2017-03-25T09:14:51.751Z,24281
2017-03-25T09:15:53.695Z,21246
2017-03-25T09:16:56.148Z,20008
2017-03-25T09:17:58.144Z,19430
2017-03-25T09:19:00.464Z,24424
2017-03-25T09:20:02.476Z,30191
2017-03-25T09:21:04.458Z,65536
2017-03-25T09:22:06.445Z,65536
2017-03-25T09:23:08.805Z,65536
2017-03-25T09:24:11.194Z,65536
2017-03-25T09:25:13.161Z,32820
2017-03-25T09:26:15.167Z,33475
2017-03-25T09:27:17.072Z,29185
2017-03-25T09:28:19.128Z,32476
2017-03-25T09:29:21.461Z,27862
2017-03-25T09:30:23.598Z,65536
2017-03-25T09:31:25.866Z,31881
2017-03-25T09:32:27.908Z,65536
2017-03-25T09:33:29.928Z,33617
2017-03-25T09:34:31.986Z,24745
2017-03-25T09:35:34.561Z,27378
2017-03-25T09:36:36.575Z,22284
2017-03-25T09:37:38.815Z,24973
2017-03-25T09:38:41.095Z,26148
2017-03-25T09:39:43.384Z,65536
2017-03-25T09:40:45.559Z,29237
2017-03-25T09:41:48.152Z,27795
2017-03-25T09:42:50.469Z,29348
2017-03-25T09:43:52.950Z,24901
2017-03-25T09:44:55.522Z,28964
2017-03-25T09:45:57.782Z,25992
2017-03-25T09:46:59.938Z,22902
2017-03-25T09:48:01.880Z,31815
2017-03-25T09:49:04.561Z,65536
2017-03-25T09:50:06.600Z,29176
2017-03-25T09:51:08.812Z,25281
2017-03-25T09:52:10.774Z,24340
2017-03-25T09:53:12.747Z,20188
2017-03-25T09:54:14.964Z,19398
2017-03-25T09:55:16.838Z,22297
2017-03-25T09:56:18.698Z,24559
2017-03-25T09:57:20.573Z,23170
2017-03-25T09:58:22.774Z,27505
2017-03-25T09:59:24.983Z,31904
2017-03-25T10:00:27.193Z,65536
2017-03-25T10:01:29.062Z,65536
2017-03-25T10:02:30.923Z,65536
2017-03-25T10:03:33.129Z,65536
2017-03-25T10:04:36.350Z,65536
2017-03-25T10:05:38.540Z,65536
2017-03-25T10:06:40.395Z,65536
2017-03-25T10:07:42.251Z,65536
2017-03-25T10:08:44.492Z,65536
2017-03-25T10:09:46.759Z,65536
2017-03-25T10:10:48.666Z,65536
2017-03-25T10:11:51.078Z,65536
2017-03-25T10:12:53.490Z,65536
2017-03-25T10:13:56.210Z,65536
2017-03-25T10:14:58.489Z,65536
2017-03-25T10:16:00.371Z,65536
2017-03-25T10:17:02.349Z,65536
2017-03-25T10:18:04.360Z,65536
2017-03-25T10:19:06.306Z,65536
2017-03-25T10:20:08.523Z,65536
2017-03-25T10:21:10.391Z,65536
2017-03-25T10:22:12.295Z,65536
2017-03-25T10:23:14.507Z,65536
2017-03-25T10:24:16.378Z,65536
2017-03-25T10:25:18.258Z,65536
2017-03-25T10:26:20.121Z,65536
2017-03-25T10:27:22.038Z,65536
2017-03-25T10:28:24.244Z,65536
2017-03-25T10:29:26.449Z,65536
2017-03-25T10:30:28.318Z,65536
2017-03-25T10:31:30.192Z,65536
2017-03-25T10:32:32.049Z,65536
2017-03-25T10:33:33.904Z,65536
2017-03-25T10:34:35.822Z,65536
2017-03-25T10:35:37.846Z,65536
2017-03-25T10:36:39.844Z,65536
2017-03-25T10:37:41.720Z,65536
2017-03-25T10:38:43.585Z,65536
2017-03-25T10:39:45.461Z,65536
2017-03-25T10:40:47.320Z,65536
2017-03-25T10:41:49.518Z,65536
2017-03-25T10:42:51.708Z,65536
2017-03-25T10:43:53.606Z,65536
2017-03-25T10:44:55.467Z,65536
2017-03-25T10:45:57.332Z,65536
2017-03-25T10:46:59.196Z,65536
2017-03-25T10:48:01.401Z,65536
2017-03-25T10:49:03.266Z,65536
2017-03-25T10:50:05.199Z,65536
2017-03-25T10:51:07.062Z,65536
2017-03-25T10:52:09.093Z,65536
2017-03-25T10:53:10.969Z,65536
2017-03-25T10:54:12.842Z,65536
2017-03-25T10:55:15.048Z,65536
2017-03-25T10:56:16.926Z,65536
2017-03-25T10:57:18.786Z,65536
2017-03-25T10:58:20.657Z,65536
2017-03-25T10:59:22.527Z,65536
2017-03-25T11:00:24.413Z,65536
2017-03-25T11:01:26.291Z,65536
2017-03-25T11:02:28.164Z,65536
2017-03-25T11:03:30.159Z,65536
2017-03-25T11:04:32.782Z,65536
2017-03-25T11:05:35.399Z,65536
2017-03-25T11:06:37.270Z,65536
2017-03-25T11:07:39.307Z,65536
2017-03-25T11:08:41.185Z,65536
2017-03-25T11:09:43.064Z,65536
2017-03-25T11:10:44.926Z,65536
2017-03-25T11:11:46.831Z,65536
2017-03-25T11:12:48.740Z,65536
2017-03-25T11:13:51.119Z,65536
2017-03-25T11:14:53.205Z,65536
2017-03-25T11:15:55.067Z,65536
2017-03-25T11:16:56.942Z,65536
2017-03-25T11:17:58.808Z,25379
2017-03-25T11:19:01.705Z,65536
2017-03-25T11:20:03.575Z,65536
2017-03-25T11:21:05.442Z,65536
2017-03-25T11:22:07.651Z,65536
2017-03-25T11:23:09.535Z,65536
2017-03-25T11:24:11.390Z,65536
2017-03-25T11:25:13.284Z,65536
2017-03-25T11:26:15.148Z,27380
2017-03-25T11:27:17.367Z,26056
2017-03-25T11:28:19.226Z,32212
2017-03-25T11:29:21.447Z,65536
2017-03-25T11:30:23.376Z,65536
2017-03-25T11:31:25.285Z,65536
2017-03-25T11:32:27.146Z,65536
2017-03-25T11:33:29.020Z,65536
2017-03-25T11:34:30.904Z,65536
2017-03-25T11:35:32.771Z,31811
2017-03-25T11:36:35.002Z,33743
2017-03-25T11:37:37.211Z,65536
2017-03-25T11:38:39.090Z,65536
2017-03-25T11:39:40.982Z,65536
2017-03-25T11:40:42.855Z,65536
2017-03-25T11:41:44.719Z,65536
2017-03-25T11:42:46.739Z,65536
2017-03-25T11:43:49.146Z,33180
2017-03-25T11:44:51.379Z,65536
2017-03-25T11:45:53.306Z,65536
2017-03-25T11:46:55.220Z,65536
2017-03-25T11:47:57.244Z,65536
2017-03-25T11:48:59.307Z,65536
2017-03-25T11:50:01.326Z,27123
2017-03-25T11:51:03.710Z,65536
2017-03-25T11:52:05.690Z,65536
2017-03-25T11:53:07.558Z,65536
2017-03-25T11:54:10.112Z,65536
2017-03-25T11:55:12.358Z,65536
2017-03-25T11:56:14.227Z,65536
2017-03-25T11:57:16.111Z,65536
2017-03-25T11:58:17.978Z,65536
2017-03-25T11:59:19.843Z,29338
2017-03-25T12:00:22.081Z,26627
2017-03-25T12:01:23.955Z,65536
2017-03-25T12:02:25.810Z,65536
2017-03-25T12:03:27.676Z,65536
2017-03-25T12:04:29.541Z,65536
2017-03-25T12:05:31.436Z,65536
2017-03-25T12:06:33.344Z,65536
2017-03-25T12:07:35.583Z,33268
2017-03-25T12:08:37.449Z,31025
2017-03-25T12:09:39.318Z,65536
2017-03-25T12:10:41.544Z,65536
2017-03-25T12:11:43.790Z,65536
2017-03-25T12:12:45.671Z,65536
2017-03-25T12:13:47.560Z,65536
2017-03-25T12:14:49.456Z,65536
2017-03-25T12:15:51.324Z,65536
2017-03-25T12:16:53.195Z,65536
2017-03-25T12:17:55.220Z,65536
2017-03-25T12:18:57.166Z,65536
2017-03-25T12:19:59.038Z,65536
2017-03-25T12:21:01.243Z,65536
2017-03-25T12:22:03.113Z,65536
2017-03-25T12:23:04.983Z,65536
2017-03-25T12:24:07.527Z,65536
2017-03-25T12:25:09.458Z,65536
2017-03-25T12:26:11.328Z,65536
2017-03-25T12:27:13.197Z,65536
2017-03-25T12:28:15.060Z,65536
2017-03-25T12:29:16.934Z,65536
2017-03-25T12:30:18.803Z,65536
2017-03-25T12:31:20.666Z,65536
2017-03-25T12:32:22.600Z,65536
2017-03-25T12:33:24.915Z,29500
2017-03-25T12:34:26.965Z,65536
2017-03-25T12:35:28.994Z,65536
2017-03-25T12:36:30.980Z,65536
2017-03-25T12:37:32.845Z,65536
2017-03-25T12:38:35.076Z,65536
2017-03-25T12:39:36.950Z,65536
2017-03-25T12:40:38.835Z,65536
2017-03-25T12:41:40.701Z,65536
2017-03-25T12:42:42.576Z,65536
2017-03-25T12:43:44.450Z,25724
2017-03-25T12:44:47.010Z,16977
2017-03-25T12:45:48.878Z,29935
2017-03-25T12:46:50.759Z,65536
2017-03-25T12:47:53.002Z,17182
2017-03-25T12:48:55.230Z,65536
2017-03-25T12:49:57.156Z,65536
2017-03-25T12:50:59.120Z,65536
2017-03-25T12:52:01.188Z,65536
2017-03-25T12:53:03.508Z,65536
2017-03-25T12:54:05.792Z,65536
2017-03-25T12:55:07.678Z,65536
2017-03-25T12:56:09.545Z,26049
2017-03-25T12:57:11.405Z,19474
2017-03-25T12:58:13.283Z,25120
2017-03-25T12:59:15.853Z,65536
2017-03-25T13:00:17.737Z,65536
2017-03-25T13:01:19.605Z,65536
2017-03-25T13:02:21.464Z,65536
2017-03-25T13:03:23.339Z,65536
2017-03-25T13:04:25.279Z,65536
2017-03-25T13:05:27.260Z,65536
2017-03-25T13:06:29.320Z,65536
2017-03-25T13:07:31.179Z,65536
2017-03-25T13:08:33.415Z,65536
2017-03-25T13:09:35.618Z,65536
2017-03-25T13:10:37.497Z,65536
2017-03-25T13:11:39.362Z,65536
2017-03-25T13:12:41.574Z,65536
2017-03-25T13:13:43.789Z,65536
2017-03-25T13:14:45.989Z,65536
2017-03-25T13:15:47.861Z,65536
2017-03-25T13:16:49.728Z,65536
2017-03-25T13:17:51.593Z,65536
2017-03-25T13:18:53.807Z,65536
2017-03-25T13:19:55.682Z,65536
2017-03-25T13:20:57.547Z,31048
2017-03-25T13:21:59.412Z,30103
2017-03-25T13:23:01.269Z,65536
2017-03-25T13:24:03.491Z,65536
2017-03-25T13:25:05.713Z,65536
2017-03-25T13:26:07.929Z,65536
2017-03-25T13:27:09.805Z,65536
2017-03-25T13:28:11.664Z,65536
2017-03-25T13:29:13.553Z,65536
2017-03-25T13:30:15.429Z,65536
2017-03-25T13:31:17.310Z,65536
2017-03-25T13:32:19.516Z,65536
2017-03-25T13:33:21.423Z,65536
2017-03-25T13:34:23.634Z,65536
2017-03-25T13:35:25.840Z,65536
2017-03-25T13:36:27.699Z,65536
2017-03-25T13:37:29.565Z,65536
2017-03-25T13:38:31.437Z,65536
2017-03-25T13:39:33.328Z,65536
2017-03-25T13:40:35.868Z,32222
2017-03-25T13:41:37.733Z,31651
2017-03-25T13:42:39.609Z,32222
2017-03-25T13:43:41.475Z,32223
2017-03-25T13:44:43.374Z,31876
2017-03-25T13:45:45.252Z,30432
2017-03-25T13:46:47.125Z,28588
2017-03-25T13:47:49.714Z,27614
2017-03-25T13:48:51.583Z,27457
2017-03-25T13:49:53.447Z,26746
2017-03-25T13:50:55.662Z,26157
2017-03-25T13:51:57.529Z,26457
2017-03-25T13:52:59.411Z,28235
2017-03-25T13:54:01.279Z,28217
2017-03-25T13:55:03.162Z,27364
2017-03-25T13:56:05.032Z,28782
2017-03-25T13:57:07.253Z,29746
2017-03-25T13:58:09.113Z,29628
2017-03-25T13:59:11.039Z,29832
2017-03-25T14:00:12.914Z,31065
2017-03-25T14:01:14.809Z,31873
2017-03-25T14:02:16.735Z,65536
2017-03-25T14:03:18.965Z,65536
2017-03-25T14:04:20.848Z,65536
2017-03-25T14:05:22.716Z,65536
2017-03-25T14:06:24.599Z,65536
2017-03-25T14:07:27.154Z,65536
2017-03-25T14:08:29.909Z,65536